Time;durP1;ratioP1;P1;durP2;ratioP2;P2;SDS_P1;SDS_P2;PMS_P1;PMS_P2;Temp;Humidity;BMP_temperature;BMP_pressure;BME280_temperature;BME280_humidity;BME280_pressure;Samples;Min_cycle;Max_cycle;Signal;HPM_P1;HPM_P2
2022/01/11 00:01:14;;;;;;;36.50;28.90;;;21.50;53.40;;;;;;4936030;29;20255;-74
2022/01/11 00:03:41;;;;;;;37.17;28.20;;;21.50;53.70;;;;;;4938911;28;20036;-75
2022/01/11 00:08:54;;;;;;;36.13;28.23;;;21.50;53.80;;;;;;4926804;29;20043;-75
2022/01/11 00:11:19;;;;;;;41.05;31.85;;;21.40;53.80;;;;;;4921525;29;20038;-75
2022/01/11 00:13:45;;;;;;;36.75;29.08;;;21.50;53.20;;;;;;4904295;29;20036;-74
2022/01/11 00:16:14;;;;;;;39.20;29.95;;;21.50;52.70;;;;;;4917106;29;20036;-75
2022/01/11 00:18:40;;;;;;;37.33;30.20;;;21.50;52.60;;;;;;4917065;29;20507;-74
2022/01/11 00:21:07;;;;;;;41.38;30.45;;;21.50;52.60;;;;;;4916709;29;20544;-75
2022/01/11 00:25:58;;;;;;;37.22;29.63;;;21.50;52.90;;;;;;4937133;29;20531;-75
2022/01/11 00:28:26;;;;;;;34.05;27.42;;;21.50;53.10;;;;;;4935885;29;20039;-74
2022/01/11 00:31:06;;;;;;;35.75;28.05;;;21.50;53.20;;;;;;4919945;29;20126;-75
2022/01/11 00:33:37;;;;;;;37.83;27.73;;;21.50;53.20;;;;;;4924658;29;20032;-75
2022/01/11 00:36:06;;;;;;;40.55;29.08;;;21.50;52.80;;;;;;4951831;29;20099;-75
2022/01/11 00:38:37;;;;;;;43.88;30.23;;;21.50;52.30;;;;;;4919677;29;20075;-75
2022/01/11 00:41:06;;;;;;;46.65;29.25;;;21.50;51.90;;;;;;4935344;29;20481;-75
2022/01/11 00:43:33;;;;;;;44.10;29.48;;;21.50;52.20;;;;;;4892184;29;20088;-75
2022/01/11 00:45:59;;;;;;;39.60;28.75;;;21.50;52.20;;;;;;4898887;29;20497;-76
2022/01/11 00:48:27;;;;;;;37.85;28.00;;;21.50;52.30;;;;;;4900601;29;20528;-75
2022/01/11 00:50:53;;;;;;;44.60;28.10;;;21.50;52.40;;;;;;4920151;29;20072;-75
2022/01/11 00:53:19;;;;;;;35.47;26.52;;;21.50;52.60;;;;;;4917650;29;20028;-76
2022/01/11 00:55:47;;;;;;;37.50;27.35;;;21.50;52.70;;;;;;4935563;29;20024;-76
2022/01/11 00:58:15;;;;;;;39.67;28.10;;;21.50;52.90;;;;;;4935268;29;20034;-75
2022/01/11 01:00:41;;;;;;;41.30;28.02;;;21.50;53.10;;;;;;4919423;29;20035;-75
2022/01/11 01:03:07;;;;;;;41.90;26.63;;;21.50;53.10;;;;;;4926604;29;20489;-79
2022/01/11 01:05:34;;;;;;;38.65;25.98;;;21.50;53.30;;;;;;4917861;29;20028;-79
2022/01/11 01:08:00;;;;;;;39.28;26.65;;;21.50;53.30;;;;;;4917412;29;20028;-77
2022/01/11 01:10:35;;;;;;;38.08;26.38;;;21.40;53.30;;;;;;4915947;29;20028;-78
2022/01/11 01:13:05;;;;;;;41.08;26.00;;;21.40;53.50;;;;;;4923233;29;20032;-78
2022/01/11 01:15:34;;;;;;;41.85;26.63;;;21.40;53.50;;;;;;4934460;29;20035;-78
2022/01/11 01:18:05;;;;;;;36.85;25.60;;;21.40;53.70;;;;;;4915662;29;20687;-79
2022/01/11 01:20:31;;;;;;;41.95;26.83;;;21.40;53.60;;;;;;4900257;29;20123;-78
2022/01/11 01:22:57;;;;;;;38.80;26.25;;;21.40;53.60;;;;;;4900909;29;20637;-79
2022/01/11 01:25:26;;;;;;;36.60;24.88;;;21.40;53.60;;;;;;4900369;29;20051;-78
2022/01/11 01:27:53;;;;;;;36.28;25.90;;;21.40;53.60;;;;;;4915883;29;20036;-79
2022/01/11 01:30:20;;;;;;;40.15;25.75;;;21.40;53.50;;;;;;4915651;29;20028;-78
2022/01/11 01:32:49;;;;;;;44.70;26.08;;;21.40;53.60;;;;;;4920283;29;20024;-79
2022/01/11 01:35:16;;;;;;;34.45;24.67;;;21.30;53.50;;;;;;4936201;29;20031;-78
2022/01/11 01:37:42;;;;;;;35.35;25.08;;;21.40;53.70;;;;;;4934705;29;20027;-79
2022/01/11 01:40:09;;;;;;;34.70;25.27;;;21.30;53.50;;;;;;4934240;29;20090;-78
2022/01/11 01:42:35;;;;;;;36.38;25.02;;;21.30;53.60;;;;;;4931199;29;20073;-79
2022/01/11 01:45:03;;;;;;;39.28;25.98;;;21.30;53.60;;;;;;4916626;29;20032;-79
2022/01/11 01:47:30;;;;;;;34.60;24.58;;;21.30;53.70;;;;;;4900093;29;20397;-79
2022/01/11 01:49:56;;;;;;;36.05;24.35;;;21.30;53.70;;;;;;4920280;29;20024;-79
2022/01/11 01:52:22;;;;;;;32.35;24.58;;;21.30;53.70;;;;;;4934668;29;20032;-78
2022/01/11 01:54:49;;;;;;;34.97;25.85;;;21.30;53.70;;;;;;4930356;29;20396;-78
2022/01/11 01:57:14;;;;;;;33.10;24.70;;;21.30;53.80;;;;;;4916920;29;20040;-78
2022/01/11 01:59:40;;;;;;;32.75;24.88;;;21.30;53.80;;;;;;4902467;29;20507;-78
2022/01/11 02:02:09;;;;;;;32.67;23.98;;;21.30;53.80;;;;;;4918446;29;20559;-78
2022/01/11 02:04:36;;;;;;;34.78;25.45;;;21.20;53.80;;;;;;4918394;29;20042;-78
2022/01/11 02:07:02;;;;;;;32.83;24.92;;;21.20;53.80;;;;;;4934161;29;20028;-78
2022/01/11 02:09:27;;;;;;;35.78;24.30;;;21.20;53.90;;;;;;4916273;29;20024;-78
2022/01/11 02:11:53;;;;;;;31.25;23.80;;;21.20;53.90;;;;;;4916693;29;20087;-78
2022/01/11 02:14:20;;;;;;;33.95;24.63;;;21.20;53.90;;;;;;4934196;29;20032;-78
2022/01/11 02:16:47;;;;;;;31.98;24.08;;;21.20;54.00;;;;;;4934159;29;20058;-78
2022/01/11 02:19:14;;;;;;;33.63;24.23;;;21.20;54.00;;;;;;4933578;29;20040;-78
2022/01/11 02:21:40;;;;;;;32.95;23.25;;;21.20;54.10;;;;;;4915191;29;20035;-78
2022/01/11 02:24:06;;;;;;;33.70;23.85;;;21.20;54.10;;;;;;4899060;29;20036;-78
2022/01/11 02:26:34;;;;;;;36.90;23.83;;;21.10;54.00;;;;;;4914766;29;20028;-78
2022/01/11 02:29:01;;;;;;;37.55;25.13;;;21.20;54.00;;;;;;4914454;29;20110;-78
2022/01/11 02:31:27;;;;;;;33.53;23.35;;;21.20;54.00;;;;;;4931077;29;20047;-78
2022/01/11 02:33:58;;;;;;;;;;;21.20;54.00;;;;;;4934017;29;20500;-78
2022/01/11 02:36:32;;;;;;;29.73;22.83;;;21.20;54.00;;;;;;4933776;29;19911;-78
2022/01/11 02:39:18;;;;;;;31.50;23.63;;;21.10;54.00;;;;;;4934342;29;20494;-78
2022/01/11 02:41:56;;;;;;;36.05;24.67;;;21.10;54.00;;;;;;4929074;29;20059;-78
2022/01/11 02:44:35;;;;;;;33.17;24.00;;;21.20;54.10;;;;;;4914513;29;20032;-79
2022/01/11 02:47:03;;;;;;;32.75;23.30;;;21.20;54.10;;;;;;4899373;29;20024;-79
2022/01/11 02:49:33;;;;;;;31.02;23.30;;;21.20;54.10;;;;;;4900055;29;20393;-79
2022/01/11 02:52:05;;;;;;;29.15;22.80;;;21.10;54.10;;;;;;4928906;29;20072;-78
2022/01/11 02:54:31;;;;;;;32.45;23.27;;;21.20;54.10;;;;;;4914267;29;20028;-78
2022/01/11 02:57:07;;;;;;;32.55;24.63;;;21.10;54.10;;;;;;4914623;29;20064;-79
2022/01/11 02:59:33;;;;;;;32.85;23.50;;;21.10;54.10;;;;;;4883361;29;20132;-78
2022/01/11 03:01:59;;;;;;;32.10;23.58;;;21.10;54.20;;;;;;4934501;29;20114;-79
2022/01/11 03:04:33;;;;;;;31.50;22.80;;;21.10;54.20;;;;;;4933126;29;20028;-78
2022/01/11 03:07:01;;;;;;;30.40;23.60;;;21.10;54.30;;;;;;4917735;29;20027;-79
2022/01/11 03:09:42;;;;;;;33.22;23.52;;;21.10;54.30;;;;;;4912838;29;20500;-79
2022/01/11 03:12:08;;;;;;;30.27;22.40;;;21.10;54.30;;;;;;4883157;29;20032;-79
2022/01/11 03:14:34;;;;;;;30.90;23.55;;;21.10;54.30;;;;;;4883072;29;20460;-79
2022/01/11 03:17:00;;;;;;;30.90;23.08;;;21.10;54.30;;;;;;4898473;29;20043;-78
2022/01/11 03:19:26;;;;;;;32.45;24.25;;;21.10;54.30;;;;;;4898421;29;20114;-79
2022/01/11 03:21:52;;;;;;;30.83;23.30;;;21.10;54.40;;;;;;4914089;29;20044;-79
2022/01/11 03:24:18;;;;;;;30.30;23.23;;;21.10;54.40;;;;;;4914118;29;20100;-78
2022/01/11 03:26:43;;;;;;;31.83;23.33;;;21.10;54.50;;;;;;4913697;29;20577;-79
2022/01/11 03:29:09;;;;;;;31.08;23.17;;;21.10;54.40;;;;;;4898627;29;20098;-79
2022/01/11 03:31:36;;;;;;;33.15;23.63;;;21.10;54.40;;;;;;4898111;29;20059;-79
2022/01/11 03:34:02;;;;;;;28.10;22.45;;;21.10;54.50;;;;;;4882949;29;20043;-78
2022/01/11 03:36:28;;;;;;;33.40;22.83;;;21.10;54.50;;;;;;4913789;29;20370;-78
2022/01/11 03:38:54;;;;;;;31.00;23.90;;;21.00;54.50;;;;;;4920545;29;20162;-78
2022/01/11 03:41:21;;;;;;;32.00;24.02;;;21.10;54.60;;;;;;4917521;29;20068;-78
2022/01/11 03:43:47;;;;;;;32.55;24.00;;;21.00;54.50;;;;;;4932773;29;20036;-78
2022/01/11 03:46:17;;;;;;;29.27;23.08;;;21.00;54.40;;;;;;4932856;29;20436;-79
2022/01/11 03:48:43;;;;;;;32.60;23.25;;;21.00;54.30;;;;;;4923943;29;20096;-78
2022/01/11 03:51:12;;;;;;;27.77;22.73;;;21.00;54.30;;;;;;4913591;29;20080;-78
2022/01/11 03:53:56;;;;;;;29.50;22.45;;;21.00;54.20;;;;;;4913754;29;20032;-78
2022/01/11 03:56:26;;;;;;;31.17;23.55;;;21.00;54.20;;;;;;4913697;29;20099;-78
2022/01/11 03:59:14;;;;;;;28.70;21.52;;;21.00;54.20;;;;;;4885420;29;20040;-78
2022/01/11 04:01:40;;;;;;;29.20;22.13;;;21.00;54.40;;;;;;4898067;29;20095;-78
2022/01/11 04:04:07;;;;;;;30.83;22.80;;;21.00;54.50;;;;;;4914644;29;20028;-78
2022/01/11 04:06:34;;;;;;;31.38;23.40;;;21.10;54.50;;;;;;4913917;29;20076;-77
2022/01/11 04:09:01;;;;;;;36.92;22.95;;;21.10;54.50;;;;;;4913492;29;20308;-78
2022/01/11 04:11:28;;;;;;;29.65;22.23;;;21.10;54.40;;;;;;4898338;29;20409;-79
2022/01/11 04:13:54;;;;;;;29.92;22.92;;;21.10;54.40;;;;;;4913411;29;20040;-78
2022/01/11 04:16:22;;;;;;;32.50;21.95;;;21.00;54.30;;;;;;4913659;29;20067;-79
2022/01/11 04:18:49;;;;;;;31.50;22.17;;;21.10;54.70;;;;;;4921307;29;20400;-79
2022/01/11 04:21:15;;;;;;;29.63;22.52;;;21.00;54.30;;;;;;4916878;29;20047;-79
2022/01/11 04:23:45;;;;;;;32.15;22.42;;;21.00;54.20;;;;;;4932161;29;20044;-78
2022/01/11 04:26:11;;;;;;;29.63;21.55;;;21.00;54.30;;;;;;4932740;29;20039;-78
2022/01/11 04:28:38;;;;;;;28.30;21.08;;;21.00;54.20;;;;;;4925943;29;20039;-78
2022/01/11 04:31:06;;;;;;;30.75;22.35;;;21.00;54.20;;;;;;4913920;29;20511;-78
2022/01/11 04:33:33;;;;;;;28.98;22.13;;;21.00;54.20;;;;;;4913496;29;20149;-79
2022/01/11 04:36:00;;;;;;;28.33;21.98;;;21.00;54.30;;;;;;4913110;29;20032;-79
2022/01/11 04:38:30;;;;;;;32.28;22.48;;;21.00;54.20;;;;;;4918482;29;20027;-79
2022/01/11 04:40:57;;;;;;;;;;;21.00;54.20;;;;;;4932377;29;20035;-79
2022/01/11 04:43:23;;;;;;;30.60;22.33;;;21.00;54.10;;;;;;4901076;29;19911;-79
2022/01/11 04:45:49;;;;;;;30.15;23.02;;;21.00;54.10;;;;;;4916046;29;20039;-78
2022/01/11 04:48:18;;;;;;;30.73;21.33;;;20.90;54.10;;;;;;4928090;29;20028;-79
2022/01/11 04:50:46;;;;;;;30.60;21.10;;;20.90;54.10;;;;;;4899466;29;20035;-79
2022/01/11 04:53:15;;;;;;;;;;;20.90;54.10;;;;;;4916965;29;20024;-79
2022/01/11 04:55:41;;;;;;;26.90;20.67;;;20.90;54.20;;;;;;4900795;29;20280;-79
2022/01/11 04:58:07;;;;;;;28.80;20.75;;;20.90;54.20;;;;;;4887580;29;20370;-78
2022/01/11 05:00:34;;;;;;;28.00;21.08;;;20.90;54.10;;;;;;4935886;29;20040;-78
2022/01/11 05:03:00;;;;;;;30.98;22.38;;;20.90;54.10;;;;;;4935846;29;20482;-78
2022/01/11 05:05:29;;;;;;;26.90;20.25;;;20.90;54.00;;;;;;4919952;29;20035;-77
2022/01/11 05:07:55;;;;;;;27.20;20.55;;;20.90;54.20;;;;;;4934438;29;20036;-77
2022/01/11 05:10:22;;;;;;;28.65;21.10;;;20.90;54.30;;;;;;4907511;29;20031;-77
2022/01/11 05:12:49;;;;;;;28.27;21.17;;;20.90;54.10;;;;;;4916140;29;20036;-78
2022/01/11 05:15:16;;;;;;;31.45;20.88;;;20.90;54.20;;;;;;4916328;29;20039;-78
2022/01/11 05:17:43;;;;;;;26.27;20.50;;;20.90;54.40;;;;;;4900553;29;20405;-78
2022/01/11 05:20:11;;;;;;;27.92;21.17;;;20.90;54.00;;;;;;4933837;29;20028;-78
2022/01/11 05:22:38;;;;;;;28.95;20.52;;;20.90;54.10;;;;;;4934773;29;20032;-78
2022/01/11 05:25:05;;;;;;;25.75;19.77;;;20.90;54.10;;;;;;4919315;29;20062;-78
2022/01/11 05:27:31;;;;;;;27.67;21.40;;;20.90;54.20;;;;;;4940203;29;20453;-78
2022/01/11 05:29:57;;;;;;;27.33;21.00;;;20.90;54.10;;;;;;4917794;29;20507;-78
2022/01/11 05:32:24;;;;;;;27.02;21.10;;;20.90;54.10;;;;;;4900421;29;20110;-78
2022/01/11 05:34:49;;;;;;;28.83;20.45;;;20.90;54.10;;;;;;4915692;29;20056;-78
2022/01/11 05:37:16;;;;;;;28.27;20.17;;;20.90;54.20;;;;;;4915687;29;20040;-78
2022/01/11 05:39:42;;;;;;;26.52;20.23;;;20.90;54.20;;;;;;4907506;29;20044;-78
2022/01/11 05:42:08;;;;;;;26.92;20.00;;;20.90;54.00;;;;;;4899893;29;20032;-78
2022/01/11 05:44:35;;;;;;;26.88;19.73;;;20.90;53.90;;;;;;4899897;29;20639;-78
2022/01/11 05:47:03;;;;;;;27.00;19.90;;;20.90;54.60;;;;;;4884435;29;20028;-78
2022/01/11 05:49:30;;;;;;;26.83;20.25;;;20.90;54.00;;;;;;4915384;29;20103;-78
2022/01/11 05:51:56;;;;;;;26.23;19.58;;;20.90;54.10;;;;;;4900227;29;20532;-78
2022/01/11 05:54:22;;;;;;;28.20;20.20;;;20.90;54.20;;;;;;4915359;29;20036;-78
2022/01/11 05:56:50;;;;;;;26.98;20.75;;;20.90;53.80;;;;;;4915229;29;20080;-78
2022/01/11 05:59:16;;;;;;;27.65;20.27;;;20.90;53.90;;;;;;4905412;29;20047;-78
2022/01/11 06:01:42;;;;;;;27.15;20.70;;;20.90;54.10;;;;;;4928876;29;20122;-78
2022/01/11 06:04:08;;;;;;;27.23;19.83;;;20.90;54.00;;;;;;4903009;29;20518;-78
2022/01/11 06:06:34;;;;;;;25.63;19.52;;;20.90;54.00;;;;;;4918380;29;20106;-78
2022/01/11 06:09:02;;;;;;;28.27;20.08;;;20.80;54.10;;;;;;4914414;29;20091;-77
2022/01/11 06:11:29;;;;;;;26.35;20.02;;;20.90;54.10;;;;;;4915268;29;20036;-77
2022/01/11 06:13:55;;;;;;;28.38;19.88;;;20.90;54.60;;;;;;4915200;29;20115;-77
2022/01/11 06:16:21;;;;;;;26.60;19.42;;;20.90;54.40;;;;;;4899275;29;20035;-77
2022/01/11 06:18:48;;;;;;;28.77;18.92;;;20.90;53.90;;;;;;4904713;29;20082;-77
2022/01/11 06:21:20;;;;;;;28.33;20.15;;;20.90;54.10;;;;;;4933929;29;20039;-77
2022/01/11 06:23:47;;;;;;;31.38;20.48;;;20.90;54.00;;;;;;4933473;29;20028;-77
2022/01/11 06:26:14;;;;;;;27.80;20.33;;;20.90;53.90;;;;;;4935217;29;20034;-77
2022/01/11 06:28:41;;;;;;;26.42;19.25;;;20.90;53.90;;;;;;4928561;29;20032;-77
2022/01/11 06:31:08;;;;;;;26.80;19.63;;;20.90;54.30;;;;;;4899113;29;20056;-77
2022/01/11 06:33:35;;;;;;;25.98;19.35;;;20.90;54.20;;;;;;4914746;29;20032;-77
2022/01/11 06:36:01;;;;;;;25.45;18.92;;;20.90;54.20;;;;;;4916315;29;20029;-76
2022/01/11 06:38:27;;;;;;;25.35;19.02;;;20.90;54.10;;;;;;4903747;29;20062;-77
2022/01/11 06:40:53;;;;;;;26.13;19.30;;;20.90;53.80;;;;;;4933281;29;20028;-77
2022/01/11 06:43:20;;;;;;;27.38;19.67;;;20.80;53.80;;;;;;4902330;29;20036;-77
2022/01/11 06:45:46;;;;;;;26.58;19.15;;;20.90;54.10;;;;;;4933467;29;20496;-77
2022/01/11 06:48:15;;;;;;;27.27;19.70;;;20.80;54.10;;;;;;4916374;29;20492;-77
2022/01/11 06:50:41;;;;;;;25.98;18.70;;;20.90;54.20;;;;;;4915308;29;20064;-78
2022/01/11 06:53:07;;;;;;;27.15;18.55;;;20.80;54.30;;;;;;4898460;29;20043;-78
2022/01/11 06:55:38;;;;;;;26.25;18.13;;;20.80;54.20;;;;;;4914336;29;20609;-77
2022/01/11 06:58:03;;;;;;;24.92;18.40;;;20.90;54.20;;;;;;4898655;29;20123;-77
2022/01/11 07:00:31;;;;;;;24.88;18.25;;;20.90;54.10;;;;;;4883470;29;20143;-77
2022/01/11 07:03:03;;;;;;;26.48;18.70;;;20.90;53.90;;;;;;4914367;29;20501;-77
2022/01/11 07:05:43;;;;;;;25.55;18.85;;;20.90;54.10;;;;;;4884592;29;20489;-78
2022/01/11 07:08:10;;;;;;;24.58;18.80;;;20.80;53.80;;;;;;4914305;29;20421;-78
2022/01/11 07:10:36;;;;;;;25.48;18.45;;;20.80;54.10;;;;;;4932516;29;20024;-78
2022/01/11 07:13:04;;;;;;;26.17;18.30;;;20.80;54.50;;;;;;4932828;29;20071;-78
2022/01/11 07:15:31;;;;;;;24.75;17.75;;;20.80;54.00;;;;;;4917335;29;20485;-78
2022/01/11 07:17:58;;;;;;;25.08;18.42;;;20.80;54.10;;;;;;4932856;29;20481;-78
2022/01/11 07:20:24;;;;;;;26.75;19.13;;;20.80;53.90;;;;;;4913226;29;20036;-77
2022/01/11 07:22:50;;;;;;;24.42;17.88;;;20.80;53.80;;;;;;4898626;29;20039;-77
2022/01/11 07:25:16;;;;;;;26.25;18.30;;;20.80;53.90;;;;;;4898105;29;20055;-77
2022/01/11 07:27:45;;;;;;;24.92;18.70;;;20.80;54.00;;;;;;4898439;29;20060;-78
2022/01/11 07:30:15;;;;;;;23.52;17.40;;;20.80;54.00;;;;;;4913242;29;20071;-78
2022/01/11 07:32:48;;;;;;;24.90;17.67;;;20.80;54.10;;;;;;4899134;29;20398;-78
2022/01/11 07:35:13;;;;;;;23.63;17.60;;;20.80;54.20;;;;;;4913945;29;20038;-78
2022/01/11 07:37:39;;;;;;;24.30;17.88;;;20.80;54.10;;;;;;4898130;29;20036;-77
2022/01/11 07:40:10;;;;;;;24.95;18.08;;;20.80;54.00;;;;;;4925430;29;20493;-77
2022/01/11 07:42:36;;;;;;;25.02;17.75;;;20.80;54.20;;;;;;4917033;29;20074;-78
2022/01/11 07:45:12;;;;;;;26.00;18.08;;;20.80;54.00;;;;;;4916911;29;20063;-79
2022/01/11 07:47:38;;;;;;;24.10;18.48;;;20.80;54.60;;;;;;4917108;29;20114;-79
2022/01/11 07:50:06;;;;;;;22.80;17.42;;;20.80;54.10;;;;;;4918449;29;20135;-76
2022/01/11 07:52:33;;;;;;;23.70;17.67;;;20.80;54.20;;;;;;4898035;29;20044;-76
2022/01/11 07:55:00;;;;;;;23.90;17.23;;;20.80;53.90;;;;;;4896760;29;20092;-78
2022/01/11 07:57:29;;;;;;;24.20;17.60;;;20.80;54.40;;;;;;4913529;29;20481;-78
2022/01/11 07:59:55;;;;;;;23.15;17.45;;;20.80;54.20;;;;;;4913819;29;20036;-77
2022/01/11 08:02:41;;;;;;;25.38;17.63;;;20.80;54.00;;;;;;4900527;29;20039;-77
2022/01/11 08:05:10;;;;;;;23.30;16.85;;;20.80;53.90;;;;;;4913896;29;20071;-78
2022/01/11 08:07:39;;;;;;;23.92;17.77;;;20.80;54.10;;;;;;4897898;29;20032;-77
2022/01/11 08:10:16;;;;;;;24.27;16.80;;;20.80;54.00;;;;;;4883420;29;20131;-76
2022/01/11 08:12:43;;;;;;;23.52;17.58;;;20.80;54.00;;;;;;4931994;29;20040;-77
2022/01/11 08:15:09;;;;;;;23.92;16.60;;;20.80;54.00;;;;;;4932581;29;20078;-77
2022/01/11 08:17:35;;;;;;;22.40;16.40;;;20.80;53.80;;;;;;4916736;29;20043;-78
2022/01/11 08:20:01;;;;;;;23.17;16.40;;;20.80;53.70;;;;;;4903747;29;20126;-80
2022/01/11 08:22:27;;;;;;;20.58;15.52;;;20.80;54.10;;;;;;4918349;29;20060;-78
2022/01/11 08:24:54;;;;;;;23.45;17.55;;;20.80;53.70;;;;;;4900481;29;20040;-78
2022/01/11 08:27:22;;;;;;;21.83;16.55;;;20.80;53.70;;;;;;4917114;29;20032;-78
2022/01/11 08:29:50;;;;;;;25.05;16.98;;;20.80;53.90;;;;;;4920419;29;20092;-78
2022/01/11 08:32:16;;;;;;;23.60;16.52;;;20.80;54.00;;;;;;4920278;29;20036;-77
2022/01/11 08:34:43;;;;;;;23.67;17.13;;;20.70;54.00;;;;;;4902890;29;20179;-77
2022/01/11 08:37:10;;;;;;;21.60;15.80;;;20.80;53.80;;;;;;4917137;29;20472;-77
2022/01/11 08:39:36;;;;;;;22.45;16.67;;;20.80;53.80;;;;;;4909156;29;20123;-77
2022/01/11 08:42:03;;;;;;;22.52;15.90;;;20.80;53.90;;;;;;4935853;29;20124;-76
2022/01/11 08:44:30;;;;;;;21.10;15.70;;;20.80;53.80;;;;;;4935707;29;20036;-76
2022/01/11 08:46:57;;;;;;;23.40;16.98;;;20.80;54.10;;;;;;4935794;29;20090;-76
2022/01/11 08:49:30;;;;;;;23.40;16.10;;;20.80;54.00;;;;;;4897358;29;20064;-76
2022/01/11 08:51:55;;;;;;;20.52;15.48;;;20.80;54.20;;;;;;4900963;29;20080;-77
2022/01/11 08:54:24;;;;;;;20.55;15.18;;;20.80;54.10;;;;;;4916649;29;20515;-76
2022/01/11 08:56:55;;;;;;;20.13;14.93;;;20.70;53.90;;;;;;4900830;29;20043;-76
2022/01/11 08:59:22;;;;;;;22.27;16.63;;;20.80;53.90;;;;;;4917182;29;20054;-76
2022/01/11 09:01:49;;;;;;;24.20;15.63;;;20.70;53.70;;;;;;4914870;29;20035;-76
2022/01/11 09:04:16;;;;;;;23.00;16.30;;;20.70;54.00;;;;;;4954517;29;20118;-76
2022/01/11 09:07:04;;;;;;;23.45;15.45;;;20.80;53.90;;;;;;4954488;29;20043;-76
2022/01/11 09:09:32;;;;;;;22.92;15.60;;;20.80;53.80;;;;;;4908909;29;20032;-76
2022/01/11 09:12:03;;;;;;;19.33;14.90;;;20.80;53.90;;;;;;4916070;29;20097;-76
2022/01/11 09:14:31;;;;;;;21.85;15.80;;;20.80;53.80;;;;;;4916103;29;20035;-76
2022/01/11 09:16:58;;;;;;;21.60;14.75;;;20.80;53.80;;;;;;4931809;29;20039;-76
2022/01/11 09:19:24;;;;;;;22.77;15.32;;;20.70;53.70;;;;;;4905018;29;20315;-76
2022/01/11 09:21:50;;;;;;;24.02;15.82;;;20.80;53.80;;;;;;4935210;29;20144;-75
2022/01/11 09:24:19;;;;;;;20.27;15.20;;;20.80;54.10;;;;;;4918937;29;20036;-76
2022/01/11 09:26:47;;;;;;;20.85;15.07;;;20.80;54.00;;;;;;4919296;29;20036;-76
2022/01/11 09:29:15;;;;;;;20.75;14.55;;;20.70;53.80;;;;;;4930187;29;20032;-75
2022/01/11 09:31:42;;;;;;;21.85;15.07;;;20.80;54.00;;;;;;4915925;29;20036;-76
2022/01/11 09:34:09;;;;;;;21.60;15.65;;;20.80;54.00;;;;;;4900248;29;20480;-76
2022/01/11 09:36:37;;;;;;;21.38;15.07;;;20.70;53.90;;;;;;4915501;29;20118;-76
2022/01/11 09:39:03;;;;;;;20.98;15.23;;;20.80;53.80;;;;;;4918056;29;20039;-76
2022/01/11 09:41:33;;;;;;;21.23;15.13;;;20.80;53.70;;;;;;4934779;29;20031;-77
2022/01/11 09:43:59;;;;;;;20.70;14.55;;;20.80;54.00;;;;;;4934418;29;20092;-76
2022/01/11 09:46:25;;;;;;;20.65;14.70;;;20.80;53.80;;;;;;4918874;29;20511;-76
2022/01/11 09:48:52;;;;;;;19.85;14.35;;;20.80;54.20;;;;;;4917882;29;20031;-76
2022/01/11 09:51:21;;;;;;;19.73;14.45;;;20.80;54.10;;;;;;4917963;29;20040;-76
2022/01/11 09:53:48;;;;;;;22.08;15.38;;;20.80;53.90;;;;;;4900103;29;20036;-76
2022/01/11 09:56:14;;;;;;;20.27;14.73;;;20.80;53.70;;;;;;4915220;29;20055;-76
2022/01/11 09:58:41;;;;;;;22.63;14.68;;;20.80;54.10;;;;;;4915350;29;20028;-75
2022/01/11 10:01:26;;;;;;;21.73;15.73;;;20.80;54.10;;;;;;4916518;29;20024;-76
2022/01/11 10:04:11;;;;;;;19.95;14.15;;;20.80;53.90;;;;;;4916603;29;20028;-76
2022/01/11 10:06:59;;;;;;;19.95;14.80;;;20.80;53.90;;;;;;4915134;29;20032;-76
2022/01/11 10:09:29;;;;;;;22.35;14.52;;;20.80;53.70;;;;;;4918929;29;20043;-77
2022/01/11 10:12:00;;;;;;;18.42;13.73;;;20.80;53.90;;;;;;4918359;29;20102;-77
2022/01/11 10:14:31;;;;;;;22.52;14.45;;;20.80;53.90;;;;;;4918766;29;20035;-76
2022/01/11 10:17:19;;;;;;;21.63;14.70;;;20.80;54.20;;;;;;4913274;29;20032;-77
2022/01/11 10:20:10;;;;;;;21.67;14.57;;;20.80;54.10;;;;;;4904164;29;20512;-77
2022/01/11 10:23:00;;;;;;;19.90;13.63;;;20.70;54.70;;;;;;4913560;29;20059;-77
2022/01/11 10:25:30;;;;;;;21.40;14.02;;;20.70;54.60;;;;;;4915058;29;20024;-77
2022/01/11 10:28:00;;;;;;;22.70;14.40;;;20.70;54.90;;;;;;4900401;29;20487;-77
2022/01/11 10:30:27;;;;;;;23.52;13.95;;;20.70;54.80;;;;;;4916456;29;20111;-77
2022/01/11 10:33:08;;;;;;;22.55;14.90;;;20.70;55.00;;;;;;4920774;29;20035;-76
2022/01/11 10:35:43;;;;;;;22.00;14.25;;;20.70;55.00;;;;;;4899598;29;20046;-76
2022/01/11 10:38:26;;;;;;;24.27;14.10;;;20.70;54.40;;;;;;4937040;29;20070;-76
2022/01/11 10:40:53;;;;;;;21.25;13.95;;;20.80;54.40;;;;;;4922566;29;20131;-76
2022/01/11 10:43:22;;;;;;;26.00;13.75;;;20.70;54.60;;;;;;4931081;29;20143;-76
2022/01/11 10:45:55;;;;;;;22.38;14.13;;;20.70;55.50;;;;;;4922679;29;20567;-74
2022/01/11 10:48:27;;;;;;;23.08;13.82;;;20.80;55.40;;;;;;4932465;29;20031;-73
2022/01/11 10:50:59;;;;;;;21.27;13.88;;;20.90;54.90;;;;;;4922260;29;20027;-73
2022/01/11 10:53:32;;;;;;;19.75;13.27;;;20.90;54.70;;;;;;4935444;29;20027;-74
2022/01/11 10:56:00;;;;;;;22.55;14.35;;;21.00;54.50;;;;;;4952370;29;20039;-73
2022/01/11 10:58:28;;;;;;;22.77;14.03;;;21.10;54.50;;;;;;4952349;29;20563;-74
2022/01/11 11:00:57;;;;;;;18.85;13.52;;;21.10;54.90;;;;;;4945259;29;20035;-74
2022/01/11 11:03:29;;;;;;;26.85;14.52;;;21.10;55.10;;;;;;4933401;29;20031;-73
2022/01/11 11:06:07;;;;;;;22.48;13.80;;;21.10;55.50;;;;;;4932856;29;20035;-77
2022/01/11 11:08:45;;;;;;;61.15;54.35;;;21.10;55.10;;;;;;4933321;29;20043;-80
2022/01/11 11:11:24;;;;;;;52.75;45.20;;;19.80;38.60;;;;;;4936061;29;20051;-73
2022/01/11 11:14:08;;;;;;;49.25;39.88;;;18.60;35.50;;;;;;4949735;29;20261;-73
2022/01/11 11:16:38;;;;;;;47.45;38.22;;;18.90;39.60;;;;;;4950272;29;20035;-73
2022/01/11 11:19:06;;;;;;;41.90;35.80;;;19.30;43.60;;;;;;4926426;29;20520;-73
2022/01/11 11:21:39;;;;;;;44.72;35.10;;;19.80;43.10;;;;;;4943542;29;20427;-73
2022/01/11 11:24:13;;;;;;;42.10;34.60;;;20.10;42.90;;;;;;4949511;28;20031;-74
2022/01/11 11:26:48;;;;;;;42.38;33.08;;;20.30;43.20;;;;;;4940552;29;20028;-74
2022/01/11 11:29:14;;;;;;;40.50;33.28;;;20.50;43.10;;;;;;4933487;29;20034;-74
2022/01/11 11:31:41;;;;;;;39.88;32.55;;;20.60;43.40;;;;;;4947000;28;20027;-74
2022/01/11 11:34:08;;;;;;;37.30;30.85;;;20.80;43.70;;;;;;4933069;29;20114;-74
2022/01/11 11:36:36;;;;;;;37.35;30.67;;;20.80;44.10;;;;;;4951044;28;20039;-74
2022/01/11 11:39:06;;;;;;;39.20;31.25;;;20.90;44.30;;;;;;4965515;23;20054;-76
2022/01/11 11:41:33;;;;;;;35.33;29.25;;;21.00;44.50;;;;;;4957058;28;20027;-76
2022/01/11 11:44:13;;;;;;;38.00;30.05;;;21.10;44.90;;;;;;4969911;28;20590;-76
2022/01/11 11:47:01;;;;;;;39.70;29.20;;;21.10;45.60;;;;;;4955117;28;20213;-76
2022/01/11 11:49:49;;;;;;;43.60;30.30;;;21.10;45.30;;;;;;4957865;28;20031;-76
2022/01/11 11:52:24;;;;;;;37.05;27.80;;;21.10;45.60;;;;;;4942080;28;20067;-76
2022/01/11 11:54:57;;;;;;;45.47;30.83;;;21.10;45.70;;;;;;4935290;29;20365;-75
2022/01/11 11:57:27;;;;;;;49.70;30.98;;;21.10;46.20;;;;;;4951443;29;20035;-75
2022/01/11 11:59:54;;;;;;;;;;;21.10;46.80;;;;;;4948831;28;20028;-75
2022/01/11 12:02:51;;;;;;;62.08;34.97;;;21.20;46.80;;;;;;4953393;29;19911;-76
2022/01/11 12:05:37;;;;;;;66.88;36.00;;;21.10;47.50;;;;;;4945961;28;20578;-76
2022/01/11 12:08:34;;;;;;;67.80;34.75;;;21.10;47.60;;;;;;4957504;28;20090;-76
2022/01/11 12:11:08;;;;;;;62.28;34.03;;;21.20;47.80;;;;;;4955404;29;20107;-76
2022/01/11 12:13:56;;;;;;;57.35;33.25;;;21.20;48.10;;;;;;4943340;29;20091;-76
2022/01/11 12:16:26;;;;;;;60.53;32.78;;;21.20;48.30;;;;;;4920218;29;20028;-75
2022/01/11 12:18:53;;;;;;;51.72;30.48;;;21.20;48.30;;;;;;4949659;29;20035;-76
2022/01/11 12:21:20;;;;;;;55.80;31.20;;;21.20;48.30;;;;;;4956849;28;20023;-76
2022/01/11 12:23:47;;;;;;;55.47;30.35;;;21.20;48.60;;;;;;4955404;29;20051;-76
2022/01/11 12:26:20;;;;;;;59.25;29.33;;;21.20;48.60;;;;;;4956132;29;20042;-76
2022/01/11 12:29:10;;;;;;;66.95;32.45;;;21.20;48.90;;;;;;4956374;29;20035;-76
2022/01/11 12:32:02;;;;;;;64.80;32.45;;;21.20;49.10;;;;;;4928658;29;20035;-76
2022/01/11 12:34:54;;;;;;;58.17;30.63;;;21.20;49.40;;;;;;4957350;28;20023;-76
2022/01/11 12:37:32;;;;;;;53.00;28.92;;;21.20;49.70;;;;;;4964599;28;20031;-76
2022/01/11 12:40:12;;;;;;;44.47;25.67;;;21.20;49.30;;;;;;4956701;28;20496;-76
2022/01/11 12:42:46;;;;;;;45.92;25.33;;;21.20;49.20;;;;;;4945477;28;20027;-76
2022/01/11 12:47:47;;;;;;;48.95;25.45;;;21.40;49.10;;;;;;4936631;29;20066;-74